Time;durP1;ratioP1;P1;durP2;ratioP2;P2;SDS_P1;SDS_P2;PMS_P1;PMS_P2;Temp;Humidity;BMP_temperature;BMP_pressure;BME280_temperature;BME280_humidity;BME280_pressure;Samples;Min_cycle;Max_cycle;Signal;HPM_P1;HPM_P2
2021/09/06 00:01:37;;;;;;;6.72;2.88;;;19.80;75.70;;;;;;5137707;27;20055;-57
2021/09/06 00:04:03;;;;;;;4.75;2.83;;;19.80;75.60;;;;;;5156710;27;20074;-59
2021/09/06 00:06:29;;;;;;;5.70;2.95;;;19.80;75.60;;;;;;5155769;27;20134;-58
2021/09/06 00:08:55;;;;;;;5.63;2.80;;;19.80;75.60;;;;;;5156732;27;20039;-55
2021/09/06 00:11:20;;;;;;;4.70;2.60;;;19.80;75.60;;;;;;5137736;27;20039;-57
2021/09/06 00:13:46;;;;;;;4.40;2.72;;;19.80;75.60;;;;;;5154422;27;20035;-56
2021/09/06 00:16:12;;;;;;;4.32;2.55;;;19.80;75.60;;;;;;5156589;27;20081;-55
2021/09/06 00:18:37;;;;;;;6.85;2.63;;;19.80;75.60;;;;;;5156148;27;20065;-59
2021/09/06 00:21:06;;;;;;;5.95;2.78;;;19.80;75.60;;;;;;5156346;27;20056;-56
2021/09/06 00:23:33;;;;;;;4.57;2.72;;;19.80;75.60;;;;;;5155562;27;20115;-54
2021/09/06 00:25:59;;;;;;;8.48;2.65;;;19.80;75.60;;;;;;5156073;27;20050;-55
2021/09/06 00:28:24;;;;;;;7.72;2.60;;;19.80;75.60;;;;;;5155787;27;20109;-58
2021/09/06 00:30:50;;;;;;;6.60;3.10;;;19.80;75.60;;;;;;5155238;27;20031;-57
2021/09/06 00:33:16;;;;;;;6.90;2.83;;;19.80;75.60;;;;;;5155920;27;20492;-55
2021/09/06 00:35:41;;;;;;;7.40;2.95;;;19.80;75.60;;;;;;5155800;27;20129;-55
2021/09/06 00:38:07;;;;;;;7.53;2.88;;;19.80;75.60;;;;;;5155715;27;20375;-54
2021/09/06 00:40:33;;;;;;;6.25;2.83;;;19.70;75.50;;;;;;5156097;27;20537;-57
2021/09/06 00:42:59;;;;;;;6.88;2.80;;;19.70;75.50;;;;;;5155436;27;20118;-56
2021/09/06 00:45:25;;;;;;;8.23;2.75;;;19.80;75.60;;;;;;5155351;27;20522;-56
2021/09/06 00:47:52;;;;;;;12.70;2.85;;;19.80;75.50;;;;;;5155342;27;20509;-55
2021/09/06 00:50:18;;;;;;;5.75;2.92;;;19.80;75.50;;;;;;5155429;27;20129;-57
2021/09/06 00:52:46;;;;;;;6.07;3.13;;;19.80;75.60;;;;;;5154861;27;20118;-56
2021/09/06 00:55:14;;;;;;;7.32;2.55;;;19.80;75.60;;;;;;5155351;27;20043;-57
2021/09/06 00:57:40;;;;;;;3.58;2.42;;;19.80;75.50;;;;;;5155596;27;20083;-56
2021/09/06 01:00:09;;;;;;;5.18;2.60;;;19.80;75.50;;;;;;5154905;27;20034;-57
2021/09/06 01:02:35;;;;;;;3.67;2.35;;;19.80;75.50;;;;;;5154394;27;20038;-56
2021/09/06 01:05:01;;;;;;;6.78;2.85;;;19.80;75.50;;;;;;5154998;27;20505;-56
2021/09/06 01:07:27;;;;;;;4.38;2.33;;;19.70;75.50;;;;;;5154871;27;20086;-56
2021/09/06 01:09:53;;;;;;;9.80;3.28;;;19.80;75.60;;;;;;5155298;27;20073;-56
2021/09/06 01:12:19;;;;;;;10.02;3.80;;;19.80;75.60;;;;;;5154853;27;20120;-56
2021/09/06 01:14:45;;;;;;;12.23;3.20;;;19.70;75.50;;;;;;5155427;27;20455;-57
2021/09/06 01:17:11;;;;;;;8.82;2.92;;;19.80;75.50;;;;;;5154459;27;20102;-56
2021/09/06 01:19:38;;;;;;;7.75;3.05;;;19.80;75.50;;;;;;5154746;27;20054;-56
2021/09/06 01:22:07;;;;;;;8.20;3.30;;;19.80;75.50;;;;;;5152940;27;20046;-56
2021/09/06 01:24:33;;;;;;;5.13;2.90;;;19.70;75.50;;;;;;5155697;27;20092;-56
2021/09/06 01:26:59;;;;;;;8.73;3.10;;;19.70;75.50;;;;;;5135547;27;20063;-56
2021/09/06 01:29:25;;;;;;;4.63;2.85;;;19.70;75.50;;;;;;5154438;27;20375;-56
2021/09/06 01:31:51;;;;;;;7.40;3.20;;;19.70;75.50;;;;;;5154505;27;20035;-55
2021/09/06 01:34:17;;;;;;;6.53;3.05;;;19.70;75.50;;;;;;5154837;27;20106;-60
2021/09/06 01:36:42;;;;;;;8.73;2.90;;;19.70;75.50;;;;;;5154913;27;20039;-58
2021/09/06 01:39:08;;;;;;;5.63;2.70;;;19.70;75.50;;;;;;5154208;27;20039;-56
2021/09/06 01:41:34;;;;;;;6.18;2.47;;;19.70;75.50;;;;;;5155128;27;20050;-56
2021/09/06 01:43:59;;;;;;;6.05;2.75;;;19.70;75.50;;;;;;5154524;27;20054;-58
2021/09/06 01:46:33;;;;;;;4.22;2.22;;;19.70;75.50;;;;;;5154469;27;20057;-57
2021/09/06 01:48:58;;;;;;;6.85;2.83;;;19.70;75.50;;;;;;5154197;27;20047;-58
2021/09/06 01:51:25;;;;;;;4.50;2.80;;;19.70;75.50;;;;;;5154074;27;20058;-58
2021/09/06 01:53:52;;;;;;;4.65;2.92;;;19.70;75.50;;;;;;5154232;27;20391;-59
2021/09/06 01:56:18;;;;;;;5.85;2.72;;;19.70;75.50;;;;;;5154792;27;20057;-56
2021/09/06 01:58:44;;;;;;;4.43;2.60;;;19.70;75.50;;;;;;5134949;27;20486;-54
2021/09/06 02:01:10;;;;;;;3.38;2.20;;;19.70;75.50;;;;;;5154235;27;20039;-56
2021/09/06 02:03:36;;;;;;;4.50;2.63;;;19.70;75.50;;;;;;5153543;27;20043;-55
2021/09/06 02:06:02;;;;;;;5.05;2.92;;;19.70;75.50;;;;;;5152839;27;20054;-56
2021/09/06 02:08:27;;;;;;;3.75;2.55;;;19.70;75.50;;;;;;5153694;27;20038;-56
2021/09/06 02:10:54;;;;;;;3.75;2.40;;;19.70;75.50;;;;;;5154273;27;20039;-55
2021/09/06 02:13:20;;;;;;;2.97;2.47;;;19.70;75.50;;;;;;5153843;27;20042;-57
2021/09/06 02:15:46;;;;;;;4.97;2.70;;;19.70;75.50;;;;;;5154438;27;20121;-58
2021/09/06 02:18:12;;;;;;;5.43;3.05;;;19.70;75.50;;;;;;5153638;27;20055;-55
2021/09/06 02:20:38;;;;;;;4.50;2.25;;;19.70;75.40;;;;;;5153296;27;20049;-55
2021/09/06 02:23:04;;;;;;;5.13;2.80;;;19.70;75.50;;;;;;5153532;27;20066;-57
2021/09/06 02:25:29;;;;;;;4.13;2.00;;;19.70;75.40;;;;;;5154305;27;20091;-58
2021/09/06 02:27:55;;;;;;;4.88;2.30;;;19.70;75.40;;;;;;5153554;27;20470;-55
2021/09/06 02:30:21;;;;;;;4.55;2.80;;;19.70;75.40;;;;;;5153523;27;20035;-56
2021/09/06 02:32:47;;;;;;;3.20;2.17;;;19.70;75.40;;;;;;5135385;27;20387;-56
2021/09/06 02:35:12;;;;;;;3.30;2.47;;;19.70;75.40;;;;;;5153251;27;20471;-58
2021/09/06 02:37:38;;;;;;;4.38;2.22;;;19.70;75.40;;;;;;5153108;27;20041;-55
2021/09/06 02:40:05;;;;;;;5.15;2.28;;;19.70;75.50;;;;;;5153301;27;20486;-57
2021/09/06 02:42:31;;;;;;;4.65;2.40;;;19.70;75.50;;;;;;5153706;27;20039;-56
2021/09/06 02:44:56;;;;;;;5.47;2.67;;;19.70;75.50;;;;;;5153695;27;20478;-56
2021/09/06 02:47:22;;;;;;;3.45;2.13;;;19.70;75.50;;;;;;5153752;27;20039;-56
2021/09/06 02:49:48;;;;;;;2.85;1.98;;;19.70;75.40;;;;;;5153306;27;20039;-57
2021/09/06 02:52:13;;;;;;;3.65;1.98;;;19.70;75.40;;;;;;5153012;27;20074;-55
2021/09/06 02:54:39;;;;;;;4.10;2.10;;;19.70;75.40;;;;;;5153549;27;20518;-55
2021/09/06 02:57:05;;;;;;;5.88;2.60;;;19.70;75.40;;;;;;5154035;27;20047;-51
2021/09/06 02:59:30;;;;;;;3.70;2.30;;;19.70;75.40;;;;;;5153311;27;20383;-57
2021/09/06 03:01:56;;;;;;;5.03;2.47;;;19.70;75.40;;;;;;5153357;27;20091;-56
2021/09/06 03:04:22;;;;;;;3.78;2.80;;;19.70;75.40;;;;;;5153261;27;20074;-56
2021/09/06 03:06:47;;;;;;;4.10;2.50;;;19.60;75.30;;;;;;5134503;27;20086;-56
2021/09/06 03:09:13;;;;;;;7.03;2.35;;;19.60;75.30;;;;;;5153349;27;20118;-56
2021/09/06 03:11:39;;;;;;;4.97;2.70;;;19.70;75.40;;;;;;5153684;27;20121;-55
2021/09/06 03:14:05;;;;;;;5.90;2.40;;;19.60;75.30;;;;;;5134423;27;20042;-57
2021/09/06 03:16:31;;;;;;;3.00;2.38;;;19.70;75.30;;;;;;5153705;27;20039;-56
2021/09/06 03:18:57;;;;;;;5.93;2.28;;;19.70;75.30;;;;;;5157028;27;20114;-58
2021/09/06 03:21:23;;;;;;;3.28;2.17;;;19.60;75.20;;;;;;5157390;27;20047;-56
2021/09/06 03:23:48;;;;;;;6.53;2.72;;;19.60;75.20;;;;;;5156036;27;20045;-56
2021/09/06 03:26:14;;;;;;;3.42;2.15;;;19.70;75.30;;;;;;5157729;27;20046;-56
2021/09/06 03:28:43;;;;;;;5.43;2.65;;;19.60;75.20;;;;;;5157183;27;20394;-54
2021/09/06 03:31:09;;;;;;;2.67;2.10;;;19.60;75.30;;;;;;5157063;27;20039;-56
2021/09/06 03:33:35;;;;;;;3.13;2.22;;;19.60;75.30;;;;;;5156507;27;20379;-58
2021/09/06 03:36:01;;;;;;;5.90;2.40;;;19.70;75.30;;;;;;5157046;27;20447;-56
2021/09/06 03:38:26;;;;;;;3.38;2.25;;;19.60;75.20;;;;;;5156816;27;20043;-55
2021/09/06 03:40:52;;;;;;;2.42;2.15;;;19.60;75.20;;;;;;5156685;27;20082;-56
2021/09/06 03:43:18;;;;;;;2.75;2.17;;;19.60;75.20;;;;;;5156983;27;20125;-58
2021/09/06 03:45:44;;;;;;;4.15;2.35;;;19.60;75.20;;;;;;5156083;27;20454;-56
2021/09/06 03:48:09;;;;;;;3.78;2.38;;;19.60;75.20;;;;;;5156968;27;20128;-54
2021/09/06 03:50:35;;;;;;;3.28;2.50;;;19.60;75.20;;;;;;5156836;27;20050;-54
2021/09/06 03:53:00;;;;;;;8.35;3.10;;;19.60;75.30;;;;;;5156543;27;20058;-56
2021/09/06 03:55:26;;;;;;;18.02;4.38;;;19.60;75.20;;;;;;5155872;27;20386;-55
2021/09/06 03:57:52;;;;;;;11.85;3.28;;;19.60;75.20;;;;;;5156604;27;20394;-56
2021/09/06 04:00:17;;;;;;;8.32;3.10;;;19.60;75.20;;;;;;5156188;27;20035;-57
2021/09/06 04:02:44;;;;;;;10.07;2.92;;;19.60;75.20;;;;;;5156469;27;20500;-55
2021/09/06 04:05:10;;;;;;;9.75;2.80;;;19.60;75.20;;;;;;5156142;27;20042;-55
2021/09/06 04:07:36;;;;;;;3.55;2.30;;;19.60;75.20;;;;;;5156380;27;20123;-56
2021/09/06 04:10:02;;;;;;;8.30;3.15;;;19.60;75.20;;;;;;5156296;27;20074;-56
2021/09/06 04:12:28;;;;;;;5.63;2.75;;;19.60;75.20;;;;;;5155943;27;20162;-56
2021/09/06 04:14:54;;;;;;;8.40;2.42;;;19.60;75.20;;;;;;5155974;27;20042;-57
2021/09/06 04:17:19;;;;;;;8.73;2.47;;;19.60;75.10;;;;;;5155723;27;20130;-56
2021/09/06 04:19:45;;;;;;;7.70;2.70;;;19.60;75.10;;;;;;5155733;27;20047;-55
2021/09/06 04:22:11;;;;;;;5.10;2.63;;;19.60;75.20;;;;;;5156428;27;20088;-56
2021/09/06 04:24:36;;;;;;;5.70;2.55;;;19.60;75.20;;;;;;5156217;27;20053;-56
2021/09/06 04:27:02;;;;;;;4.97;2.58;;;19.60;75.20;;;;;;5155045;27;20126;-56
2021/09/06 04:29:28;;;;;;;4.45;2.35;;;19.60;75.10;;;;;;5155245;27;20034;-58
2021/09/06 04:31:54;;;;;;;3.22;2.40;;;19.60;75.20;;;;;;5155899;27;20441;-57
2021/09/06 04:34:20;;;;;;;4.75;2.60;;;19.60;75.20;;;;;;5156005;27;20046;-55
2021/09/06 04:36:46;;;;;;;4.47;2.13;;;19.60;75.20;;;;;;5155612;27;20371;-56
2021/09/06 04:39:12;;;;;;;4.40;2.22;;;19.60;75.20;;;;;;5153596;27;20175;-53
2021/09/06 04:41:37;;;;;;;6.25;2.53;;;19.60;75.20;;;;;;5154895;27;20043;-56
2021/09/06 04:44:03;;;;;;;4.03;2.38;;;19.60;75.20;;;;;;5155139;27;20054;-57
2021/09/06 04:46:29;;;;;;;5.20;2.70;;;19.60;75.20;;;;;;5155337;27;20046;-56
2021/09/06 04:48:55;;;;;;;4.47;2.50;;;19.60;75.20;;;;;;5155362;27;20109;-54
2021/09/06 04:51:21;;;;;;;4.65;2.30;;;19.60;75.20;;;;;;5155494;27;20089;-56
2021/09/06 04:53:46;;;;;;;2.95;2.35;;;19.60;75.20;;;;;;5137467;27;20522;-57
2021/09/06 04:56:14;;;;;;;5.43;2.42;;;19.60;75.20;;;;;;5155402;27;20486;-57
2021/09/06 04:58:40;;;;;;;4.85;2.40;;;19.60;75.20;;;;;;5154046;27;20492;-56
2021/09/06 05:01:06;;;;;;;3.03;2.28;;;19.60;75.30;;;;;;5154862;27;20049;-57
2021/09/06 05:03:32;;;;;;;3.90;2.45;;;19.60;75.30;;;;;;5155393;27;20118;-58
2021/09/06 05:05:59;;;;;;;3.28;2.60;;;19.60;75.30;;;;;;5136739;27;20050;-56
2021/09/06 05:08:29;;;;;;;3.83;2.33;;;19.60;75.30;;;;;;5155106;27;20082;-56
2021/09/06 05:10:55;;;;;;;3.83;2.30;;;19.60;75.30;;;;;;5155032;27;20083;-58
2021/09/06 05:13:22;;;;;;;2.83;1.90;;;19.70;75.30;;;;;;5155142;27;20384;-57
2021/09/06 05:15:47;;;;;;;4.05;2.00;;;19.60;75.20;;;;;;5154186;27;20510;-56
2021/09/06 05:18:13;;;;;;;4.70;2.40;;;19.60;75.20;;;;;;5154903;27;20050;-53
2021/09/06 05:20:39;;;;;;;5.55;2.40;;;19.60;75.20;;;;;;5154792;27;20035;-56
2021/09/06 05:23:05;;;;;;;3.00;2.35;;;19.60;75.20;;;;;;5155215;27;20049;-55
2021/09/06 05:25:31;;;;;;;3.35;2.40;;;19.50;75.10;;;;;;5155042;27;20394;-56
2021/09/06 05:27:57;;;;;;;4.05;2.45;;;19.60;75.20;;;;;;5135650;27;20050;-56
2021/09/06 05:30:22;;;;;;;4.07;2.20;;;19.60;75.20;;;;;;5153961;27;20087;-56
2021/09/06 05:32:48;;;;;;;2.67;2.10;;;19.50;75.10;;;;;;5155081;27;20039;-56
2021/09/06 05:35:14;;;;;;;3.90;2.28;;;19.50;75.10;;;;;;5154748;27;20034;-56
2021/09/06 05:37:40;;;;;;;2.97;2.05;;;19.50;75.20;;;;;;5154997;27;20043;-56
2021/09/06 05:40:06;;;;;;;3.28;2.15;;;19.50;75.10;;;;;;5155127;27;20039;-54
2021/09/06 05:42:32;;;;;;;5.00;2.20;;;19.50;75.10;;;;;;5135574;27;20053;-57
2021/09/06 05:44:58;;;;;;;3.00;1.95;;;19.50;75.10;;;;;;5135569;27;20486;-56
2021/09/06 05:47:24;;;;;;;2.58;2.15;;;19.50;75.10;;;;;;5154278;27;20095;-56
2021/09/06 05:49:49;;;;;;;2.70;2.10;;;19.50;75.10;;;;;;5154383;27;20046;-53
2021/09/06 05:52:15;;;;;;;2.72;2.08;;;19.50;75.10;;;;;;5154145;27;20501;-61
2021/09/06 05:54:41;;;;;;;3.45;2.13;;;19.50;75.10;;;;;;5135450;27;20149;-59
2021/09/06 05:57:07;;;;;;;2.40;1.88;;;19.50;75.10;;;;;;5154425;27;20042;-56
2021/09/06 05:59:33;;;;;;;3.15;2.22;;;19.50;75.10;;;;;;5135586;27;20099;-56
2021/09/06 06:01:59;;;;;;;3.30;2.17;;;19.50;75.10;;;;;;5153485;27;20050;-57
2021/09/06 06:04:24;;;;;;;3.80;2.25;;;19.50;75.10;;;;;;5154468;27;20046;-56
2021/09/06 06:06:50;;;;;;;3.25;2.50;;;19.50;75.10;;;;;;5153671;27;20390;-56
2021/09/06 06:09:16;;;;;;;3.08;1.70;;;19.50;75.10;;;;;;5154358;27;20045;-57
2021/09/06 06:11:41;;;;;;;3.30;2.08;;;19.50;75.10;;;;;;5154454;27;20039;-61
2021/09/06 06:14:08;;;;;;;2.25;2.05;;;19.50;75.10;;;;;;5135844;27;20042;-55
2021/09/06 06:16:34;;;;;;;2.95;1.90;;;19.50;75.10;;;;;;5154429;27;20114;-56
2021/09/06 06:19:00;;;;;;;3.30;2.00;;;19.60;75.20;;;;;;5153701;27;20100;-57
2021/09/06 06:21:27;;;;;;;2.08;1.70;;;19.50;75.10;;;;;;5152832;27;20449;-56
2021/09/06 06:23:53;;;;;;;2.10;1.70;;;19.50;75.10;;;;;;5153777;27;20042;-56
2021/09/06 06:26:19;;;;;;;2.10;1.90;;;19.50;75.10;;;;;;5153979;27;20042;-59
2021/09/06 06:28:44;;;;;;;2.33;1.83;;;19.50;75.20;;;;;;5153625;27;20042;-56
2021/09/06 06:31:10;;;;;;;2.97;2.35;;;19.50;75.20;;;;;;5153960;27;20467;-57
2021/09/06 06:33:35;;;;;;;2.72;1.80;;;19.50;75.20;;;;;;5153348;27;20450;-53
2021/09/06 06:36:04;;;;;;;2.85;1.80;;;19.50;75.10;;;;;;5154371;27;20038;-57
2021/09/06 06:38:30;;;;;;;3.10;1.92;;;19.50;75.20;;;;;;5154056;27;20047;-57
2021/09/06 06:40:56;;;;;;;2.95;2.10;;;19.50;75.20;;;;;;5153946;27;20043;-56
2021/09/06 06:43:22;;;;;;;4.50;2.08;;;19.50;75.20;;;;;;5135028;27;20406;-62
2021/09/06 06:45:48;;;;;;;2.63;2.13;;;19.50;75.20;;;;;;5134059;27;20055;-56
2021/09/06 06:48:13;;;;;;;2.40;1.73;;;19.50;75.20;;;;;;5153567;27;20091;-57
2021/09/06 06:50:39;;;;;;;2.53;1.90;;;19.50;75.10;;;;;;5153892;27;20420;-57
2021/09/06 06:53:05;;;;;;;2.45;1.70;;;19.50;75.20;;;;;;5156260;27;20061;-55
2021/09/06 06:55:31;;;;;;;2.72;1.95;;;19.50;75.20;;;;;;5157940;27;20080;-57
2021/09/06 06:57:56;;;;;;;2.20;1.80;;;19.50;75.20;;;;;;5158051;27;20047;-57
2021/09/06 07:00:22;;;;;;;2.42;1.70;;;19.50;75.20;;;;;;5157759;27;20402;-57
2021/09/06 07:02:48;;;;;;;2.35;1.70;;;19.50;75.20;;;;;;5157556;27;20042;-58
2021/09/06 07:05:13;;;;;;;2.45;1.70;;;19.50;75.20;;;;;;5157188;27;20034;-56
2021/09/06 07:07:39;;;;;;;2.60;1.98;;;19.50;75.20;;;;;;5157279;27;20035;-57
2021/09/06 07:10:07;;;;;;;2.08;1.50;;;19.50;75.20;;;;;;5158237;27;20115;-57
2021/09/06 07:12:32;;;;;;;2.47;2.05;;;19.50;75.20;;;;;;5157712;27;20451;-58
2021/09/06 07:14:58;;;;;;;2.70;1.98;;;19.50;75.20;;;;;;5158014;27;20034;-57
2021/09/06 07:17:23;;;;;;;3.15;2.35;;;19.50;75.20;;;;;;5157506;27;20103;-58
2021/09/06 07:19:49;;;;;;;2.90;2.00;;;19.50;75.20;;;;;;5157470;27;20043;-58
2021/09/06 07:22:15;;;;;;;2.60;1.85;;;19.50;75.30;;;;;;5157057;27;20038;-51
2021/09/06 07:24:41;;;;;;;3.45;1.70;;;19.50;75.30;;;;;;5157826;27;20083;-56
2021/09/06 07:27:06;;;;;;;2.88;1.90;;;19.50;75.30;;;;;;5157328;27;20050;-56
2021/09/06 07:29:32;;;;;;;2.22;1.77;;;19.50;75.30;;;;;;5156690;27;20039;-57
2021/09/06 07:31:58;;;;;;;2.40;1.80;;;19.50;75.30;;;;;;5157306;27;20055;-57
2021/09/06 07:34:23;;;;;;;3.28;1.98;;;19.50;75.30;;;;;;5157493;27;20046;-57
2021/09/06 07:36:49;;;;;;;2.20;1.80;;;19.40;75.30;;;;;;5137658;27;20065;-57
2021/09/06 07:39:16;;;;;;;2.38;2.00;;;19.50;75.30;;;;;;5157512;27;20475;-56
2021/09/06 07:41:43;;;;;;;2.88;2.20;;;19.50;75.30;;;;;;5157441;27;20042;-58
2021/09/06 07:44:09;;;;;;;3.58;2.35;;;19.50;75.30;;;;;;5156944;27;20042;-56
2021/09/06 07:46:34;;;;;;;2.35;2.03;;;19.50;75.40;;;;;;5156688;27;20038;-56
2021/09/06 07:49:00;;;;;;;2.33;1.98;;;19.50;75.40;;;;;;5157131;27;20459;-56
2021/09/06 07:51:26;;;;;;;2.70;2.20;;;19.50;75.40;;;;;;5157291;27;20046;-56
2021/09/06 07:54:01;;;;;;;2.53;2.15;;;19.50;75.40;;;;;;5156530;27;20097;-56
2021/09/06 07:56:28;;;;;;;2.40;2.15;;;19.50;75.40;;;;;;5138251;27;20047;-55
2021/09/06 07:58:53;;;;;;;2.50;2.30;;;19.50;75.50;;;;;;5156376;27;20030;-53
2021/09/06 08:01:19;;;;;;;3.15;2.10;;;19.50;75.50;;;;;;5156844;27;20046;-55
2021/09/06 08:03:45;;;;;;;3.00;2.25;;;19.50;75.50;;;;;;5155567;27;20458;-56
2021/09/06 08:06:10;;;;;;;3.03;2.25;;;19.50;75.50;;;;;;5156965;27;20042;-56
2021/09/06 08:08:36;;;;;;;2.47;2.08;;;19.40;75.50;;;;;;5156522;27;20115;-55
2021/09/06 08:11:02;;;;;;;2.45;1.77;;;19.50;75.50;;;;;;5156789;27;20038;-56
2021/09/06 08:13:27;;;;;;;1.75;1.63;;;19.50;75.60;;;;;;5155969;27;20039;-55
2021/09/06 08:15:53;;;;;;;2.90;2.20;;;19.50;75.60;;;;;;5156722;27;20053;-56
2021/09/06 08:18:19;;;;;;;2.35;1.90;;;19.50;75.60;;;;;;5155808;27;20043;-54
2021/09/06 08:20:45;;;;;;;2.38;1.88;;;19.50;75.70;;;;;;5156265;27;20107;-56
2021/09/06 08:23:11;;;;;;;2.45;1.95;;;19.50;75.60;;;;;;5156305;27;20367;-56
2021/09/06 08:25:36;;;;;;;2.63;1.85;;;19.50;75.70;;;;;;5156498;27;20043;-57
2021/09/06 08:28:02;;;;;;;1.83;1.55;;;19.50;75.70;;;;;;5156233;27;20129;-58
2021/09/06 08:30:28;;;;;;;2.25;1.98;;;19.50;75.70;;;;;;5133855;27;20042;-56
2021/09/06 08:32:53;;;;;;;2.83;1.77;;;19.50;75.70;;;;;;5147935;27;20039;-57
2021/09/06 08:35:19;;;;;;;1.65;1.55;;;19.50;75.70;;;;;;5155937;27;20442;-55
2021/09/06 08:37:45;;;;;;;2.25;1.88;;;19.50;75.70;;;;;;5156567;27;20046;-55
2021/09/06 08:40:13;;;;;;;1.92;1.70;;;19.50;75.70;;;;;;5155736;27;20035;-57
2021/09/06 08:42:39;;;;;;;2.30;1.67;;;19.50;76.40;;;;;;5155837;27;20078;-56
2021/09/06 08:45:06;;;;;;;1.77;1.58;;;19.50;75.80;;;;;;5137011;27;20054;-55
2021/09/06 08:47:32;;;;;;;2.60;1.88;;;19.50;75.80;;;;;;5155455;27;20406;-55
2021/09/06 08:49:59;;;;;;;1.95;1.70;;;19.50;75.80;;;;;;5137078;27;20689;-56
2021/09/06 08:52:25;;;;;;;2.00;1.63;;;19.50;75.80;;;;;;5155762;27;20125;-56
2021/09/06 08:54:50;;;;;;;2.03;1.65;;;19.50;75.80;;;;;;5154785;27;20039;-56
2021/09/06 08:57:17;;;;;;;2.13;1.52;;;19.50;75.80;;;;;;5155498;27;20546;-56
2021/09/06 08:59:44;;;;;;;1.98;1.77;;;19.60;75.80;;;;;;5155385;27;20121;-56
2021/09/06 09:02:11;;;;;;;2.13;1.73;;;19.50;75.70;;;;;;5155060;27;20486;-56
2021/09/06 09:04:38;;;;;;;1.98;1.65;;;19.50;75.70;;;;;;5154861;27;20486;-58
2021/09/06 09:07:04;;;;;;;1.90;1.48;;;19.50;75.70;;;;;;5136682;27;20054;-56
2021/09/06 09:09:36;;;;;;;1.80;1.48;;;19.60;75.80;;;;;;5136876;27;20547;-58
2021/09/06 09:12:13;;;;;;;1.83;1.63;;;19.60;75.80;;;;;;5154319;27;20399;-53
2021/09/06 09:14:41;;;;;;;1.67;1.52;;;19.60;75.80;;;;;;5145729;27;20398;-56
2021/09/06 09:17:10;;;;;;;2.05;1.40;;;19.60;75.80;;;;;;5155017;27;20069;-59
2021/09/06 09:19:37;;;;;;;2.53;1.77;;;19.60;75.80;;;;;;5155047;27;20050;-57
2021/09/06 09:22:06;;;;;;;1.80;1.25;;;19.60;75.80;;;;;;5146594;27;20410;-53
2021/09/06 09:24:32;;;;;;;1.83;1.67;;;19.60;75.80;;;;;;5150299;27;20130;-55
2021/09/06 09:27:03;;;;;;;2.03;1.40;;;19.60;75.90;;;;;;5154405;27;20129;-50
2021/09/06 09:29:29;;;;;;;2.08;1.75;;;19.60;75.90;;;;;;5153392;27;20098;-48
2021/09/06 09:31:57;;;;;;;2.35;1.70;;;19.60;76.00;;;;;;5133261;27;20042;-55
2021/09/06 09:34:23;;;;;;;1.60;1.30;;;19.70;76.00;;;;;;5148916;27;20461;-51
2021/09/06 09:36:52;;;;;;;1.73;1.50;;;19.60;75.90;;;;;;5143080;27;20042;-56
2021/09/06 09:39:20;;;;;;;1.95;1.50;;;19.60;76.00;;;;;;5154126;27;20403;-56
2021/09/06 09:41:48;;;;;;;1.83;1.35;;;19.60;76.60;;;;;;5153783;27;20047;-54
2021/09/06 09:44:20;;;;;;;1.58;1.35;;;19.60;76.00;;;;;;5152581;27;20113;-54
2021/09/06 09:47:03;;;;;;;1.67;1.58;;;19.60;76.00;;;;;;5154431;27;20107;-55
2021/09/06 09:49:31;;;;;;;2.13;1.48;;;19.60;76.00;;;;;;5151987;27;20039;-53
2021/09/06 09:51:57;;;;;;;1.40;1.27;;;19.60;76.00;;;;;;5135278;27;20054;-51
2021/09/06 09:54:23;;;;;;;1.48;1.38;;;19.60;76.00;;;;;;5153599;27;20034;-50
2021/09/06 09:56:49;;;;;;;1.35;1.10;;;19.60;76.00;;;;;;5153162;27;20105;-56
2021/09/06 09:59:17;;;;;;;1.48;1.30;;;19.70;76.10;;;;;;5153475;27;20039;-50
2021/09/06 10:01:53;;;;;;;2.35;1.55;;;19.60;76.00;;;;;;5153694;27;20076;-56
2021/09/06 10:04:23;;;;;;;1.50;1.40;;;19.70;76.00;;;;;;5152377;27;20394;-55
2021/09/06 10:06:52;;;;;;;1.50;1.30;;;19.70;76.00;;;;;;5153485;27;20047;-50
2021/09/06 10:09:17;;;;;;;2.00;1.73;;;19.70;76.00;;;;;;5154417;27;20144;-56
2021/09/06 10:11:43;;;;;;;1.55;1.30;;;19.70;76.70;;;;;;5153015;27;20077;-56
2021/09/06 10:14:12;;;;;;;1.70;1.33;;;19.70;76.00;;;;;;5152747;27;20081;-54
2021/09/06 10:16:39;;;;;;;1.45;1.20;;;19.70;76.70;;;;;;5153004;27;20371;-55
2021/09/06 10:19:10;;;;;;;1.20;1.10;;;19.70;76.60;;;;;;5151709;27;20462;-54
2021/09/06 10:21:43;;;;;;;1.80;1.40;;;19.70;76.00;;;;;;5153983;27;20125;-57
2021/09/06 10:24:15;;;;;;;2.70;1.70;;;19.70;76.00;;;;;;5141760;27;20053;-58
2021/09/06 10:26:41;;;;;;;1.60;1.40;;;19.70;76.00;;;;;;5145635;27;20185;-56
2021/09/06 10:29:18;;;;;;;1.65;1.38;;;19.70;76.00;;;;;;5153193;27;20448;-57
2021/09/06 10:31:45;;;;;;;1.60;1.45;;;19.70;76.00;;;;;;5151432;27;20035;-54
2021/09/06 10:34:21;;;;;;;1.73;1.48;;;19.70;75.90;;;;;;5149528;27;20513;-57
2021/09/06 10:37:03;;;;;;;1.67;1.42;;;19.70;75.90;;;;;;5153366;27;20049;-56
2021/09/06 10:39:30;;;;;;;1.90;1.10;;;19.70;75.90;;;;;;5132603;28;20479;-56
2021/09/06 10:42:06;;;;;;;1.50;1.30;;;19.70;75.90;;;;;;5133060;28;20039;-56
2021/09/06 10:44:37;;;;;;;1.33;1.23;;;19.70;75.90;;;;;;5133014;28;20046;-61
2021/09/06 10:47:11;;;;;;;1.55;1.25;;;19.70;75.90;;;;;;5142991;27;20082;-55
2021/09/06 10:49:42;;;;;;;1.98;1.40;;;19.80;75.90;;;;;;5135181;27;20043;-58
2021/09/06 10:52:10;;;;;;;2.25;1.65;;;19.80;75.90;;;;;;5152515;27;20046;-61
2021/09/06 10:54:38;;;;;;;1.77;1.40;;;19.80;75.90;;;;;;5152832;27;20039;-55
2021/09/06 10:57:07;;;;;;;1.52;1.42;;;19.80;75.90;;;;;;5153497;27;20043;-54
2021/09/06 10:59:32;;;;;;;1.83;1.45;;;19.80;75.90;;;;;;5153822;27;20038;-55
2021/09/06 11:01:58;;;;;;;1.65;1.23;;;19.80;75.90;;;;;;5143678;27;20046;-55
2021/09/06 11:04:27;;;;;;;1.63;1.20;;;19.80;75.90;;;;;;5145617;27;20038;-55
2021/09/06 11:07:06;;;;;;;1.38;1.27;;;19.80;75.90;;;;;;5146277;27;20087;-63
2021/09/06 11:09:34;;;;;;;1.85;1.30;;;19.80;75.90;;;;;;5152697;27;20035;-63
2021/09/06 11:12:08;;;;;;;1.60;1.30;;;19.80;75.90;;;;;;5153761;27;20035;-59
2021/09/06 11:14:45;;;;;;;1.60;1.50;;;19.80;75.90;;;;;;5133898;27;20434;-53
2021/09/06 11:17:20;;;;;;;9.38;2.17;;;19.80;75.90;;;;;;5152060;27;20045;-54
2021/09/06 11:19:48;;;;;;;3.58;1.67;;;19.80;75.60;;;;;;5152650;27;20050;-56
2021/09/06 11:22:16;;;;;;;2.97;2.38;;;19.80;75.60;;;;;;5152554;27;20082;-56
2021/09/06 11:24:43;;;;;;;5.40;2.45;;;19.90;75.60;;;;;;5152773;27;20215;-56
2021/09/06 11:27:24;;;;;;;3.97;2.30;;;19.80;75.60;;;;;;5154090;27;20050;-57
2021/09/06 11:29:50;;;;;;;3.83;2.65;;;19.80;75.70;;;;;;5153550;27;20057;-57
2021/09/06 11:32:15;;;;;;;3.90;1.92;;;19.80;75.80;;;;;;5153342;27;20479;-56
2021/09/06 11:34:41;;;;;;;7.18;5.22;;;19.90;75.90;;;;;;5153511;27;20164;-59
2021/09/06 11:37:08;;;;;;;8.77;3.65;;;19.80;74.80;;;;;;5153575;27;20121;-57
2021/09/06 11:39:35;;;;;;;7.80;4.47;;;19.80;74.70;;;;;;5156934;27;20070;-57
2021/09/06 11:42:02;;;;;;;5.88;4.32;;;19.90;74.80;;;;;;5157823;27;20051;-57
2021/09/06 11:44:29;;;;;;;6.03;4.72;;;19.80;74.90;;;;;;5157870;27;20042;-56
2021/09/06 11:46:54;;;;;;;7.70;4.93;;;19.90;75.10;;;;;;5156817;27;20038;-57
2021/09/06 11:49:20;;;;;;;8.25;4.75;;;19.90;75.00;;;;;;5156142;27;20131;-56
2021/09/06 11:51:46;;;;;;;8.63;4.68;;;19.90;74.90;;;;;;5156840;27;20074;-57
2021/09/06 11:54:13;;;;;;;6.70;3.92;;;19.90;74.80;;;;;;5156862;27;20320;-58
2021/09/06 11:56:39;;;;;;;5.35;4.40;;;19.90;74.80;;;;;;5156277;27;20042;-57
2021/09/06 11:59:05;;;;;;;5.93;4.50;;;20.00;74.90;;;;;;5137366;27;20130;-58
2021/09/06 12:01:35;;;;;;;7.15;4.70;;;20.00;75.20;;;;;;5156594;27;20114;-58
2021/09/06 12:04:06;;;;;;;5.97;4.38;;;20.00;75.40;;;;;;5156368;27;20471;-58
2021/09/06 12:06:32;;;;;;;5.43;4.68;;;20.00;75.50;;;;;;5155282;27;20051;-58
2021/09/06 12:09:00;;;;;;;4.85;3.90;;;20.00;75.60;;;;;;5156017;27;20113;-57
2021/09/06 12:11:36;;;;;;;6.10;4.30;;;20.00;75.80;;;;;;5155352;27;20042;-57
2021/09/06 12:14:03;;;;;;;6.07;3.90;;;20.00;75.80;;;;;;5156661;27;20057;-58
2021/09/06 12:16:30;;;;;;;7.15;4.05;;;20.00;76.00;;;;;;5156810;27;20039;-57
2021/09/06 12:18:57;;;;;;;6.13;4.15;;;20.00;75.80;;;;;;5155894;27;20443;-55
2021/09/06 12:21:24;;;;;;;5.20;4.05;;;20.00;75.80;;;;;;5156197;27;20042;-56
2021/09/06 12:24:02;;;;;;;5.22;4.03;;;20.10;76.00;;;;;;5137835;27;20043;-55
2021/09/06 12:26:43;;;;;;;6.38;4.47;;;20.10;76.00;;;;;;5156366;27;20072;-56
2021/09/06 12:29:10;;;;;;;6.82;4.20;;;20.10;76.00;;;;;;5137535;27;20039;-57
2021/09/06 12:31:43;;;;;;;6.50;3.90;;;20.10;76.00;;;;;;5156046;27;20466;-57
2021/09/06 12:34:13;;;;;;;6.32;3.80;;;20.00;75.90;;;;;;5156144;27;20049;-56
2021/09/06 12:36:41;;;;;;;6.53;4.43;;;20.10;75.90;;;;;;5147321;27;20407;-53
2021/09/06 12:39:07;;;;;;;5.53;4.30;;;20.10;75.80;;;;;;5144503;27;20068;-57
2021/09/06 12:41:33;;;;;;;4.80;3.55;;;20.10;75.80;;;;;;5154757;27;20030;-58
2021/09/06 12:43:59;;;;;;;5.75;3.70;;;20.10;75.80;;;;;;5154860;27;20049;-55